Terminal Aerodrome Forecast
Issued by NWS Bismarck, ND

Home | Current Version | Previous Version | Text Only | Print | Product List | Glossary Off
Versions: 1 2 3 4 5 6 7 8 9 10 11 12 13 14 15 16 17 18 19 20 21

899
FTUS43 KBIS 210846 AAA
TAFBIS
TAF AMD
KBIS 210846Z 2109/2206 00000KT 1/2SM FG BKN002
     FM211200 12004KT 3SM BR SCT002
     FM211500 16005KT P6SM FEW140=

USA.gov is the U.S. government's official web portal to all federal, state and local government web resources and services.